sensor_id;sensor_type;location;lat;lon;timestamp;P1;durP1;ratioP1;P2;durP2;ratioP2
9465;SDS011;4771;48.726;9.006;2023-04-16T00:00:36;9.63;;;7.53;;
9465;SDS011;4771;48.726;9.006;2023-04-16T00:03:03;8.57;;;7.70;;
9465;SDS011;4771;48.726;9.006;2023-04-16T00:05:30;7.63;;;6.93;;
9465;SDS011;4771;48.726;9.006;2023-04-16T00:07:58;8.17;;;7.37;;
9465;SDS011;4771;48.726;9.006;2023-04-16T00:10:25;8.53;;;7.63;;
9465;SDS011;4771;48.726;9.006;2023-04-16T00:12:52;9.57;;;7.30;;
9465;SDS011;4771;48.726;9.006;2023-04-16T00:15:19;8.37;;;7.57;;
9465;SDS011;4771;48.726;9.006;2023-04-16T00:17:46;8.23;;;7.43;;
9465;SDS011;4771;48.726;9.006;2023-04-16T00:20:13;9.17;;;8.27;;
9465;SDS011;4771;48.726;9.006;2023-04-16T00:22:40;8.40;;;7.50;;
9465;SDS011;4771;48.726;9.006;2023-04-16T00:25:08;9.13;;;7.67;;
9465;SDS011;4771;48.726;9.006;2023-04-16T00:27:35;8.27;;;7.37;;
9465;SDS011;4771;48.726;9.006;2023-04-16T00:30:02;8.30;;;7.50;;
9465;SDS011;4771;48.726;9.006;2023-04-16T00:32:30;8.27;;;7.47;;
9465;SDS011;4771;48.726;9.006;2023-04-16T00:34:56;8.57;;;7.50;;
9465;SDS011;4771;48.726;9.006;2023-04-16T00:37:23;8.67;;;7.77;;
9465;SDS011;4771;48.726;9.006;2023-04-16T00:39:50;8.70;;;7.80;;
9465;SDS011;4771;48.726;9.006;2023-04-16T00:42:18;8.70;;;7.90;;
9465;SDS011;4771;48.726;9.006;2023-04-16T00:44:45;8.60;;;7.73;;
9465;SDS011;4771;48.726;9.006;2023-04-16T00:47:12;9.07;;;7.40;;
9465;SDS011;4771;48.726;9.006;2023-04-16T00:49:39;7.27;;;6.57;;
9465;SDS011;4771;48.726;9.006;2023-04-16T00:52:06;8.30;;;7.50;;
9465;SDS011;4771;48.726;9.006;2023-04-16T00:54:33;7.70;;;6.90;;
9465;SDS011;4771;48.726;9.006;2023-04-16T00:57:00;7.93;;;7.13;;
9465;SDS011;4771;48.726;9.006;2023-04-16T00:59:29;7.57;;;6.80;;
9465;SDS011;4771;48.726;9.006;2023-04-16T01:01:56;8.67;;;7.40;;
9465;SDS011;4771;48.726;9.006;2023-04-16T01:04:23;7.83;;;7.03;;
9465;SDS011;4771;48.726;9.006;2023-04-16T01:06:50;11.30;;;7.80;;
9465;SDS011;4771;48.726;9.006;2023-04-16T01:09:17;7.33;;;6.63;;
9465;SDS011;4771;48.726;9.006;2023-04-16T01:11:44;7.63;;;6.83;;
9465;SDS011;4771;48.726;9.006;2023-04-16T01:14:10;7.63;;;6.83;;
9465;SDS011;4771;48.726;9.006;2023-04-16T01:16:39;7.20;;;6.50;;
9465;SDS011;4771;48.726;9.006;2023-04-16T01:19:05;8.37;;;7.50;;
9465;SDS011;4771;48.726;9.006;2023-04-16T01:21:34;7.80;;;7.00;;
9465;SDS011;4771;48.726;9.006;2023-04-16T01:24:01;7.83;;;7.03;;
9465;SDS011;4771;48.726;9.006;2023-04-16T01:26:28;8.00;;;7.20;;
9465;SDS011;4771;48.726;9.006;2023-04-16T01:28:55;7.70;;;6.50;;
9465;SDS011;4771;48.726;9.006;2023-04-16T01:31:22;7.07;;;6.47;;
9465;SDS011;4771;48.726;9.006;2023-04-16T01:33:49;7.00;;;6.30;;
9465;SDS011;4771;48.726;9.006;2023-04-16T01:36:16;6.27;;;5.53;;
9465;SDS011;4771;48.726;9.006;2023-04-16T01:38:44;6.33;;;5.73;;
9465;SDS011;4771;48.726;9.006;2023-04-16T01:41:11;6.17;;;5.57;;
9465;SDS011;4771;48.726;9.006;2023-04-16T01:43:38;6.20;;;5.60;;
9465;SDS011;4771;48.726;9.006;2023-04-16T01:46:13;6.13;;;5.53;;
9465;SDS011;4771;48.726;9.006;2023-04-16T01:48:43;6.13;;;5.53;;
9465;SDS011;4771;48.726;9.006;2023-04-16T01:51:10;5.77;;;5.10;;
9465;SDS011;4771;48.726;9.006;2023-04-16T01:53:37;5.77;;;5.27;;
9465;SDS011;4771;48.726;9.006;2023-04-16T01:56:05;6.00;;;5.40;;
9465;SDS011;4771;48.726;9.006;2023-04-16T01:58:32;5.87;;;5.27;;
9465;SDS011;4771;48.726;9.006;2023-04-16T02:00:59;5.93;;;5.33;;
9465;SDS011;4771;48.726;9.006;2023-04-16T02:03:26;5.77;;;5.17;;
9465;SDS011;4771;48.726;9.006;2023-04-16T02:05:53;6.33;;;5.33;;
9465;SDS011;4771;48.726;9.006;2023-04-16T02:08:20;5.80;;;5.20;;
9465;SDS011;4771;48.726;9.006;2023-04-16T02:10:48;5.87;;;5.00;;
9465;SDS011;4771;48.726;9.006;2023-04-16T02:13:17;5.67;;;4.83;;
9465;SDS011;4771;48.726;9.006;2023-04-16T02:15:44;5.83;;;5.10;;
9465;SDS011;4771;48.726;9.006;2023-04-16T02:18:12;5.83;;;5.23;;
9465;SDS011;4771;48.726;9.006;2023-04-16T02:20:39;9.27;;;5.43;;
9465;SDS011;4771;48.726;9.006;2023-04-16T02:23:07;5.83;;;5.03;;
9465;SDS011;4771;48.726;9.006;2023-04-16T02:25:37;5.60;;;5.00;;
9465;SDS011;4771;48.726;9.006;2023-04-16T02:28:05;7.70;;;5.63;;
9465;SDS011;4771;48.726;9.006;2023-04-16T02:30:34;6.27;;;5.67;;
9465;SDS011;4771;48.726;9.006;2023-04-16T02:33:01;6.27;;;5.20;;
9465;SDS011;4771;48.726;9.006;2023-04-16T02:35:29;6.10;;;5.50;;
9465;SDS011;4771;48.726;9.006;2023-04-16T02:37:56;6.80;;;6.10;;
9465;SDS011;4771;48.726;9.006;2023-04-16T02:40:23;6.67;;;5.37;;
9465;SDS011;4771;48.726;9.006;2023-04-16T02:42:51;5.90;;;5.30;;
9465;SDS011;4771;48.726;9.006;2023-04-16T02:45:18;6.13;;;5.53;;
9465;SDS011;4771;48.726;9.006;2023-04-16T02:47:46;5.33;;;4.60;;
9465;SDS011;4771;48.726;9.006;2023-04-16T02:50:14;6.37;;;5.77;;
9465;SDS011;4771;48.726;9.006;2023-04-16T02:52:41;6.60;;;5.90;;
9465;SDS011;4771;48.726;9.006;2023-04-16T02:55:08;6.87;;;5.67;;
9465;SDS011;4771;48.726;9.006;2023-04-16T02:57:36;5.83;;;5.23;;
9465;SDS011;4771;48.726;9.006;2023-04-16T03:00:03;5.53;;;4.97;;
9465;SDS011;4771;48.726;9.006;2023-04-16T03:02:31;7.50;;;5.20;;
9465;SDS011;4771;48.726;9.006;2023-04-16T03:04:59;5.53;;;5.00;;
9465;SDS011;4771;48.726;9.006;2023-04-16T03:07:26;6.00;;;5.40;;
9465;SDS011;4771;48.726;9.006;2023-04-16T03:09:53;6.57;;;5.87;;
9465;SDS011;4771;48.726;9.006;2023-04-16T03:12:20;6.80;;;5.97;;
9465;SDS011;4771;48.726;9.006;2023-04-16T03:14:46;7.50;;;6.50;;
9465;SDS011;4771;48.726;9.006;2023-04-16T03:17:15;7.50;;;6.33;;
9465;SDS011;4771;48.726;9.006;2023-04-16T03:19:42;6.90;;;6.20;;
9465;SDS011;4771;48.726;9.006;2023-04-16T03:22:10;8.03;;;7.03;;
9465;SDS011;4771;48.726;9.006;2023-04-16T03:24:37;6.97;;;6.27;;
9465;SDS011;4771;48.726;9.006;2023-04-16T03:27:04;8.07;;;6.97;;
9465;SDS011;4771;48.726;9.006;2023-04-16T03:29:31;8.00;;;7.00;;
9465;SDS011;4771;48.726;9.006;2023-04-16T03:31:58;8.13;;;7.10;;
9465;SDS011;4771;48.726;9.006;2023-04-16T03:34:25;7.33;;;6.30;;
9465;SDS011;4771;48.726;9.006;2023-04-16T03:36:52;8.27;;;6.90;;
9465;SDS011;4771;48.726;9.006;2023-04-16T03:39:20;9.73;;;6.67;;
9465;SDS011;4771;48.726;9.006;2023-04-16T03:41:47;8.67;;;7.37;;
9465;SDS011;4771;48.726;9.006;2023-04-16T03:44:13;8.10;;;7.23;;
9465;SDS011;4771;48.726;9.006;2023-04-16T03:46:40;8.27;;;7.23;;
9465;SDS011;4771;48.726;9.006;2023-04-16T03:49:07;7.67;;;6.77;;
9465;SDS011;4771;48.726;9.006;2023-04-16T03:51:34;7.67;;;6.77;;
9465;SDS011;4771;48.726;9.006;2023-04-16T03:54:01;7.87;;;6.30;;
9465;SDS011;4771;48.726;9.006;2023-04-16T03:56:29;7.43;;;6.23;;
9465;SDS011;4771;48.726;9.006;2023-04-16T03:58:56;8.40;;;6.83;;
9465;SDS011;4771;48.726;9.006;2023-04-16T04:01:23;8.43;;;6.90;;
9465;SDS011;4771;48.726;9.006;2023-04-16T04:03:50;8.03;;;6.90;;
9465;SDS011;4771;48.726;9.006;2023-04-16T04:06:17;8.27;;;6.50;;
9465;SDS011;4771;48.726;9.006;2023-04-16T04:08:44;7.77;;;5.97;;
9465;SDS011;4771;48.726;9.006;2023-04-16T04:11:11;7.50;;;6.33;;
9465;SDS011;4771;48.726;9.006;2023-04-16T04:13:39;7.60;;;6.20;;
9465;SDS011;4771;48.726;9.006;2023-04-16T04:16:06;6.67;;;5.97;;
9465;SDS011;4771;48.726;9.006;2023-04-16T04:18:33;7.03;;;6.00;;
9465;SDS011;4771;48.726;9.006;2023-04-16T04:21:04;7.60;;;6.43;;
9465;SDS011;4771;48.726;9.006;2023-04-16T04:23:31;7.70;;;6.53;;
9465;SDS011;4771;48.726;9.006;2023-04-16T04:25:58;7.93;;;5.93;;
9465;SDS011;4771;48.726;9.006;2023-04-16T04:28:27;8.10;;;6.63;;
9465;SDS011;4771;48.726;9.006;2023-04-16T04:30:56;6.93;;;5.67;;
9465;SDS011;4771;48.726;9.006;2023-04-16T04:33:23;7.00;;;6.00;;
9465;SDS011;4771;48.726;9.006;2023-04-16T04:35:50;7.50;;;6.20;;
9465;SDS011;4771;48.726;9.006;2023-04-16T04:38:17;6.97;;;5.60;;
9465;SDS011;4771;48.726;9.006;2023-04-16T04:40:46;7.80;;;6.27;;
9465;SDS011;4771;48.726;9.006;2023-04-16T04:43:13;7.47;;;6.10;;
9465;SDS011;4771;48.726;9.006;2023-04-16T04:45:40;7.77;;;6.10;;
9465;SDS011;4771;48.726;9.006;2023-04-16T04:48:08;9.00;;;6.57;;
9465;SDS011;4771;48.726;9.006;2023-04-16T04:50:35;7.33;;;6.07;;
9465;SDS011;4771;48.726;9.006;2023-04-16T04:53:02;6.87;;;6.17;;
9465;SDS011;4771;48.726;9.006;2023-04-16T04:55:34;7.10;;;5.90;;
9465;SDS011;4771;48.726;9.006;2023-04-16T04:58:01;7.37;;;6.20;;
9465;SDS011;4771;48.726;9.006;2023-04-16T05:00:28;8.97;;;6.63;;
9465;SDS011;4771;48.726;9.006;2023-04-16T05:02:55;8.40;;;6.90;;
9465;SDS011;4771;48.726;9.006;2023-04-16T05:05:24;7.80;;;6.73;;
9465;SDS011;4771;48.726;9.006;2023-04-16T05:07:50;8.40;;;7.50;;
9465;SDS011;4771;48.726;9.006;2023-04-16T05:10:17;9.07;;;6.60;;
9465;SDS011;4771;48.726;9.006;2023-04-16T05:12:44;8.47;;;6.70;;
9465;SDS011;4771;48.726;9.006;2023-04-16T05:15:12;8.53;;;6.97;;
9465;SDS011;4771;48.726;9.006;2023-04-16T05:17:39;8.80;;;7.03;;
9465;SDS011;4771;48.726;9.006;2023-04-16T05:20:07;7.97;;;7.13;;
9465;SDS011;4771;48.726;9.006;2023-04-16T05:22:35;9.27;;;7.43;;
9465;SDS011;4771;48.726;9.006;2023-04-16T05:25:02;12.47;;;8.73;;
9465;SDS011;4771;48.726;9.006;2023-04-16T05:27:30;13.87;;;10.80;;
9465;SDS011;4771;48.726;9.006;2023-04-16T05:29:57;15.70;;;12.17;;
9465;SDS011;4771;48.726;9.006;2023-04-16T05:32:24;15.87;;;12.67;;
9465;SDS011;4771;48.726;9.006;2023-04-16T05:34:51;17.67;;;12.73;;
9465;SDS011;4771;48.726;9.006;2023-04-16T05:37:18;17.20;;;12.50;;
9465;SDS011;4771;48.726;9.006;2023-04-16T05:39:47;17.47;;;13.07;;
9465;SDS011;4771;48.726;9.006;2023-04-16T05:42:14;16.00;;;12.67;;
9465;SDS011;4771;48.726;9.006;2023-04-16T05:44:41;18.93;;;13.37;;
9465;SDS011;4771;48.726;9.006;2023-04-16T05:47:08;19.33;;;13.60;;
9465;SDS011;4771;48.726;9.006;2023-04-16T05:49:34;19.57;;;14.10;;
9465;SDS011;4771;48.726;9.006;2023-04-16T05:52:02;19.10;;;13.67;;
9465;SDS011;4771;48.726;9.006;2023-04-16T05:54:29;19.40;;;15.00;;
9465;SDS011;4771;48.726;9.006;2023-04-16T05:56:57;19.23;;;14.93;;
9465;SDS011;4771;48.726;9.006;2023-04-16T05:59:25;21.00;;;15.00;;
9465;SDS011;4771;48.726;9.006;2023-04-16T06:01:52;19.67;;;14.73;;
9465;SDS011;4771;48.726;9.006;2023-04-16T06:04:18;20.00;;;15.37;;
9465;SDS011;4771;48.726;9.006;2023-04-16T06:06:45;19.47;;;15.03;;
9465;SDS011;4771;48.726;9.006;2023-04-16T06:09:12;22.33;;;15.17;;
9465;SDS011;4771;48.726;9.006;2023-04-16T06:11:39;21.43;;;15.03;;
9465;SDS011;4771;48.726;9.006;2023-04-16T06:14:08;20.43;;;15.37;;
9465;SDS011;4771;48.726;9.006;2023-04-16T06:16:34;22.73;;;15.80;;
9465;SDS011;4771;48.726;9.006;2023-04-16T06:19:01;20.73;;;15.40;;
9465;SDS011;4771;48.726;9.006;2023-04-16T06:21:28;21.17;;;16.10;;
9465;SDS011;4771;48.726;9.006;2023-04-16T06:23:55;21.63;;;15.57;;
9465;SDS011;4771;48.726;9.006;2023-04-16T06:26:22;19.37;;;15.70;;
9465;SDS011;4771;48.726;9.006;2023-04-16T06:28:49;23.03;;;16.43;;
9465;SDS011;4771;48.726;9.006;2023-04-16T06:31:18;25.27;;;16.30;;
9465;SDS011;4771;48.726;9.006;2023-04-16T06:33:44;22.80;;;17.53;;
9465;SDS011;4771;48.726;9.006;2023-04-16T06:36:11;26.33;;;18.63;;
9465;SDS011;4771;48.726;9.006;2023-04-16T06:38:38;24.30;;;17.70;;
9465;SDS011;4771;48.726;9.006;2023-04-16T06:41:05;30.63;;;18.47;;
9465;SDS011;4771;48.726;9.006;2023-04-16T06:43:32;26.63;;;19.23;;
9465;SDS011;4771;48.726;9.006;2023-04-16T06:45:59;28.50;;;18.93;;
9465;SDS011;4771;48.726;9.006;2023-04-16T06:48:27;26.00;;;19.07;;
9465;SDS011;4771;48.726;9.006;2023-04-16T06:50:54;28.33;;;19.40;;
9465;SDS011;4771;48.726;9.006;2023-04-16T06:53:21;27.57;;;18.97;;
9465;SDS011;4771;48.726;9.006;2023-04-16T06:55:48;27.20;;;19.07;;
9465;SDS011;4771;48.726;9.006;2023-04-16T06:58:15;25.80;;;18.03;;
9465;SDS011;4771;48.726;9.006;2023-04-16T07:00:42;25.07;;;18.93;;
9465;SDS011;4771;48.726;9.006;2023-04-16T07:03:09;27.17;;;19.27;;
9465;SDS011;4771;48.726;9.006;2023-04-16T07:05:37;27.87;;;18.93;;
9465;SDS011;4771;48.726;9.006;2023-04-16T07:08:04;27.97;;;18.93;;
9465;SDS011;4771;48.726;9.006;2023-04-16T07:10:31;27.10;;;18.97;;
9465;SDS011;4771;48.726;9.006;2023-04-16T07:12:58;28.00;;;19.23;;
9465;SDS011;4771;48.726;9.006;2023-04-16T07:15:25;23.90;;;18.03;;
9465;SDS011;4771;48.726;9.006;2023-04-16T07:17:52;23.93;;;17.70;;
9465;SDS011;4771;48.726;9.006;2023-04-16T07:20:19;24.47;;;17.63;;
9465;SDS011;4771;48.726;9.006;2023-04-16T07:22:47;24.67;;;17.50;;
9465;SDS011;4771;48.726;9.006;2023-04-16T07:25:14;23.80;;;16.90;;
9465;SDS011;4771;48.726;9.006;2023-04-16T07:27:42;22.53;;;17.23;;
9465;SDS011;4771;48.726;9.006;2023-04-16T07:30:09;26.00;;;16.43;;
9465;SDS011;4771;48.726;9.006;2023-04-16T07:32:36;21.23;;;16.37;;
9465;SDS011;4771;48.726;9.006;2023-04-16T07:35:03;22.80;;;16.70;;
9465;SDS011;4771;48.726;9.006;2023-04-16T07:37:30;28.10;;;16.57;;
9465;SDS011;4771;48.726;9.006;2023-04-16T07:39:59;20.60;;;15.80;;
9465;SDS011;4771;48.726;9.006;2023-04-16T07:42:26;19.73;;;15.43;;
9465;SDS011;4771;48.726;9.006;2023-04-16T07:44:53;20.93;;;16.17;;
9465;SDS011;4771;48.726;9.006;2023-04-16T07:47:20;18.53;;;15.13;;
9465;SDS011;4771;48.726;9.006;2023-04-16T07:49:50;21.20;;;16.30;;
9465;SDS011;4771;48.726;9.006;2023-04-16T07:52:17;20.93;;;14.67;;
9465;SDS011;4771;48.726;9.006;2023-04-16T07:54:44;22.03;;;15.80;;
9465;SDS011;4771;48.726;9.006;2023-04-16T07:57:12;23.10;;;16.43;;
9465;SDS011;4771;48.726;9.006;2023-04-16T07:59:40;20.33;;;15.47;;
9465;SDS011;4771;48.726;9.006;2023-04-16T08:02:08;19.83;;;14.80;;
9465;SDS011;4771;48.726;9.006;2023-04-16T08:04:38;19.23;;;15.50;;
9465;SDS011;4771;48.726;9.006;2023-04-16T08:07:06;21.27;;;15.93;;
9465;SDS011;4771;48.726;9.006;2023-04-16T08:09:32;19.90;;;15.17;;
9465;SDS011;4771;48.726;9.006;2023-04-16T08:12:00;19.90;;;15.37;;
9465;SDS011;4771;48.726;9.006;2023-04-16T08:14:28;20.40;;;15.90;;
9465;SDS011;4771;48.726;9.006;2023-04-16T08:16:56;22.67;;;16.07;;
9465;SDS011;4771;48.726;9.006;2023-04-16T08:19:22;20.73;;;15.23;;
9465;SDS011;4771;48.726;9.006;2023-04-16T08:21:49;19.57;;;15.60;;
9465;SDS011;4771;48.726;9.006;2023-04-16T08:24:16;20.80;;;15.83;;
9465;SDS011;4771;48.726;9.006;2023-04-16T08:26:43;21.07;;;15.37;;
9465;SDS011;4771;48.726;9.006;2023-04-16T08:29:10;19.63;;;15.87;;
9465;SDS011;4771;48.726;9.006;2023-04-16T08:31:38;18.93;;;14.83;;
9465;SDS011;4771;48.726;9.006;2023-04-16T08:34:05;19.30;;;15.43;;
9465;SDS011;4771;48.726;9.006;2023-04-16T08:36:32;18.77;;;15.23;;
9465;SDS011;4771;48.726;9.006;2023-04-16T08:38:59;22.03;;;14.80;;
9465;SDS011;4771;48.726;9.006;2023-04-16T08:41:26;19.13;;;14.53;;
9465;SDS011;4771;48.726;9.006;2023-04-16T08:43:56;19.33;;;14.20;;
9465;SDS011;4771;48.726;9.006;2023-04-16T08:46:25;18.63;;;14.37;;
9465;SDS011;4771;48.726;9.006;2023-04-16T08:48:55;19.77;;;14.50;;
9465;SDS011;4771;48.726;9.006;2023-04-16T08:51:26;18.30;;;13.30;;
9465;SDS011;4771;48.726;9.006;2023-04-16T08:54:00;18.60;;;13.17;;
9465;SDS011;4771;48.726;9.006;2023-04-16T08:56:30;19.77;;;13.20;;
9465;SDS011;4771;48.726;9.006;2023-04-16T08:59:00;15.67;;;11.87;;
9465;SDS011;4771;48.726;9.006;2023-04-16T09:01:29;18.87;;;13.37;;
9465;SDS011;4771;48.726;9.006;2023-04-16T09:03:59;18.00;;;13.17;;
9465;SDS011;4771;48.726;9.006;2023-04-16T09:06:26;18.70;;;13.47;;
9465;SDS011;4771;48.726;9.006;2023-04-16T09:08:54;16.37;;;12.73;;
9465;SDS011;4771;48.726;9.006;2023-04-16T09:11:22;16.50;;;13.60;;
9465;SDS011;4771;48.726;9.006;2023-04-16T09:13:50;17.53;;;13.20;;
9465;SDS011;4771;48.726;9.006;2023-04-16T09:16:18;16.47;;;13.07;;
9465;SDS011;4771;48.726;9.006;2023-04-16T09:18:46;20.87;;;12.90;;
9465;SDS011;4771;48.726;9.006;2023-04-16T09:21:14;18.30;;;13.00;;
9465;SDS011;4771;48.726;9.006;2023-04-16T09:23:41;16.27;;;12.27;;
9465;SDS011;4771;48.726;9.006;2023-04-16T09:26:09;17.80;;;12.87;;
9465;SDS011;4771;48.726;9.006;2023-04-16T09:28:40;16.13;;;12.07;;
9465;SDS011;4771;48.726;9.006;2023-04-16T09:31:08;20.57;;;13.20;;
9465;SDS011;4771;48.726;9.006;2023-04-16T09:33:36;19.60;;;13.63;;
9465;SDS011;4771;48.726;9.006;2023-04-16T09:36:04;19.97;;;14.20;;
9465;SDS011;4771;48.726;9.006;2023-04-16T09:38:45;18.87;;;14.00;;
9465;SDS011;4771;48.726;9.006;2023-04-16T09:41:14;19.97;;;14.23;;
9465;SDS011;4771;48.726;9.006;2023-04-16T09:43:46;20.33;;;13.70;;
9465;SDS011;4771;48.726;9.006;2023-04-16T09:46:18;19.37;;;13.90;;
9465;SDS011;4771;48.726;9.006;2023-04-16T09:48:45;20.40;;;13.90;;
9465;SDS011;4771;48.726;9.006;2023-04-16T09:51:12;21.77;;;14.60;;
9465;SDS011;4771;48.726;9.006;2023-04-16T09:53:39;24.93;;;15.23;;
9465;SDS011;4771;48.726;9.006;2023-04-16T09:56:08;22.33;;;15.00;;
9465;SDS011;4771;48.726;9.006;2023-04-16T09:58:35;20.10;;;13.80;;
9465;SDS011;4771;48.726;9.006;2023-04-16T10:01:04;20.50;;;13.93;;
9465;SDS011;4771;48.726;9.006;2023-04-16T10:03:34;22.03;;;14.93;;
9465;SDS011;4771;48.726;9.006;2023-04-16T10:06:06;21.10;;;15.17;;
9465;SDS011;4771;48.726;9.006;2023-04-16T10:08:34;20.27;;;14.10;;
9465;SDS011;4771;48.726;9.006;2023-04-16T10:11:01;24.50;;;15.40;;
9465;SDS011;4771;48.726;9.006;2023-04-16T10:13:30;20.93;;;14.70;;
9465;SDS011;4771;48.726;9.006;2023-04-16T10:15:57;24.07;;;15.60;;
9465;SDS011;4771;48.726;9.006;2023-04-16T10:18:24;22.67;;;15.37;;
9465;SDS011;4771;48.726;9.006;2023-04-16T10:20:52;20.87;;;14.67;;
9465;SDS011;4771;48.726;9.006;2023-04-16T10:23:20;22.17;;;15.20;;
9465;SDS011;4771;48.726;9.006;2023-04-16T10:25:49;22.03;;;15.00;;
9465;SDS011;4771;48.726;9.006;2023-04-16T10:28:18;22.00;;;15.63;;
9465;SDS011;4771;48.726;9.006;2023-04-16T10:30:47;23.30;;;14.70;;
9465;SDS011;4771;48.726;9.006;2023-04-16T10:33:21;22.60;;;14.87;;
9465;SDS011;4771;48.726;9.006;2023-04-16T10:35:51;23.97;;;15.57;;
9465;SDS011;4771;48.726;9.006;2023-04-16T10:38:32;23.27;;;14.77;;
9465;SDS011;4771;48.726;9.006;2023-04-16T10:41:00;20.27;;;14.33;;
9465;SDS011;4771;48.726;9.006;2023-04-16T10:43:29;17.23;;;13.37;;
9465;SDS011;4771;48.726;9.006;2023-04-16T10:46:00;18.93;;;13.87;;
9465;SDS011;4771;48.726;9.006;2023-04-16T10:48:43;21.97;;;14.87;;
9465;SDS011;4771;48.726;9.006;2023-04-16T10:51:21;19.07;;;13.80;;
9465;SDS011;4771;48.726;9.006;2023-04-16T10:53:53;18.90;;;13.53;;
9465;SDS011;4771;48.726;9.006;2023-04-16T10:56:22;18.43;;;12.60;;
9465;SDS011;4771;48.726;9.006;2023-04-16T10:58:49;18.87;;;13.03;;
9465;SDS011;4771;48.726;9.006;2023-04-16T11:01:25;19.10;;;12.80;;
9465;SDS011;4771;48.726;9.006;2023-04-16T11:03:56;16.67;;;11.80;;
9465;SDS011;4771;48.726;9.006;2023-04-16T11:06:25;19.57;;;12.50;;
9465;SDS011;4771;48.726;9.006;2023-04-16T11:08:53;18.03;;;12.13;;
9465;SDS011;4771;48.726;9.006;2023-04-16T11:11:21;14.80;;;10.70;;
9465;SDS011;4771;48.726;9.006;2023-04-16T11:13:48;16.37;;;11.07;;
9465;SDS011;4771;48.726;9.006;2023-04-16T11:16:19;14.33;;;11.00;;
9465;SDS011;4771;48.726;9.006;2023-04-16T11:18:49;14.43;;;10.20;;
9465;SDS011;4771;48.726;9.006;2023-04-16T11:21:16;15.10;;;10.93;;
9465;SDS011;4771;48.726;9.006;2023-04-16T11:23:47;15.67;;;11.10;;
9465;SDS011;4771;48.726;9.006;2023-04-16T11:26:19;14.50;;;10.27;;
9465;SDS011;4771;48.726;9.006;2023-04-16T11:28:50;15.03;;;10.50;;
9465;SDS011;4771;48.726;9.006;2023-04-16T11:31:17;13.53;;;9.83;;
9465;SDS011;4771;48.726;9.006;2023-04-16T11:33:45;13.63;;;9.17;;
9465;SDS011;4771;48.726;9.006;2023-04-16T11:36:12;13.17;;;8.83;;
9465;SDS011;4771;48.726;9.006;2023-04-16T11:38:40;13.07;;;9.53;;
9465;SDS011;4771;48.726;9.006;2023-04-16T11:41:07;11.63;;;8.63;;
9465;SDS011;4771;48.726;9.006;2023-04-16T11:43:34;11.03;;;8.40;;
9465;SDS011;4771;48.726;9.006;2023-04-16T11:46:02;11.50;;;8.67;;
9465;SDS011;4771;48.726;9.006;2023-04-16T11:48:47;9.60;;;7.73;;
9465;SDS011;4771;48.726;9.006;2023-04-16T11:51:14;12.57;;;8.17;;
9465;SDS011;4771;48.726;9.006;2023-04-16T11:53:45;11.97;;;8.67;;
9465;SDS011;4771;48.726;9.006;2023-04-16T11:56:13;10.80;;;8.30;;
9465;SDS011;4771;48.726;9.006;2023-04-16T11:58:40;10.80;;;8.13;;
9465;SDS011;4771;48.726;9.006;2023-04-16T12:01:07;9.87;;;8.00;;
9465;SDS011;4771;48.726;9.006;2023-04-16T12:03:38;11.10;;;7.87;;
9465;SDS011;4771;48.726;9.006;2023-04-16T12:06:09;10.37;;;7.80;;
9465;SDS011;4771;48.726;9.006;2023-04-16T12:08:36;9.87;;;7.13;;
9465;SDS011;4771;48.726;9.006;2023-04-16T12:11:03;9.03;;;6.07;;
9465;SDS011;4771;48.726;9.006;2023-04-16T12:13:30;7.10;;;5.73;;
9465;SDS011;4771;48.726;9.006;2023-04-16T12:16:06;6.53;;;5.33;;
9465;SDS011;4771;48.726;9.006;2023-04-16T12:18:57;7.93;;;5.77;;
9465;SDS011;4771;48.726;9.006;2023-04-16T12:21:35;7.03;;;5.47;;
9465;SDS011;4771;48.726;9.006;2023-04-16T12:24:03;4.50;;;3.90;;
9465;SDS011;4771;48.726;9.006;2023-04-16T12:26:40;4.77;;;4.20;;
9465;SDS011;4771;48.726;9.006;2023-04-16T12:29:16;5.27;;;4.10;;
9465;SDS011;4771;48.726;9.006;2023-04-16T12:31:45;4.10;;;3.57;;
9465;SDS011;4771;48.726;9.006;2023-04-16T12:34:11;4.93;;;3.57;;
9465;SDS011;4771;48.726;9.006;2023-04-16T12:36:40;4.97;;;3.87;;
9465;SDS011;4771;48.726;9.006;2023-04-16T12:39:08;3.77;;;3.40;;
9465;SDS011;4771;48.726;9.006;2023-04-16T12:41:36;4.07;;;3.50;;
9465;SDS011;4771;48.726;9.006;2023-04-16T12:44:04;4.43;;;3.83;;
9465;SDS011;4771;48.726;9.006;2023-04-16T12:46:33;6.40;;;3.83;;
9465;SDS011;4771;48.726;9.006;2023-04-16T12:49:01;4.57;;;4.10;;
9465;SDS011;4771;48.726;9.006;2023-04-16T12:51:28;3.77;;;3.10;;
9465;SDS011;4771;48.726;9.006;2023-04-16T12:53:58;4.90;;;3.90;;
9465;SDS011;4771;48.726;9.006;2023-04-16T12:56:25;4.73;;;3.63;;
9465;SDS011;4771;48.726;9.006;2023-04-16T12:58:52;3.83;;;3.40;;
9465;SDS011;4771;48.726;9.006;2023-04-16T13:01:20;3.87;;;3.40;;
9465;SDS011;4771;48.726;9.006;2023-04-16T13:03:47;4.07;;;3.67;;
9465;SDS011;4771;48.726;9.006;2023-04-16T13:06:15;4.10;;;3.67;;
9465;SDS011;4771;48.726;9.006;2023-04-16T13:08:42;6.20;;;3.57;;
9465;SDS011;4771;48.726;9.006;2023-04-16T13:11:11;6.77;;;5.03;;
9465;SDS011;4771;48.726;9.006;2023-04-16T13:13:38;10.00;;;9.07;;
9465;SDS011;4771;48.726;9.006;2023-04-16T13:16:05;6.57;;;4.93;;
9465;SDS011;4771;48.726;9.006;2023-04-16T13:18:33;4.07;;;3.67;;
9465;SDS011;4771;48.726;9.006;2023-04-16T13:21:01;4.20;;;3.67;;
9465;SDS011;4771;48.726;9.006;2023-04-16T13:23:29;4.57;;;3.70;;
9465;SDS011;4771;48.726;9.006;2023-04-16T13:25:56;4.63;;;3.83;;
9465;SDS011;4771;48.726;9.006;2023-04-16T13:28:24;3.90;;;3.50;;
9465;SDS011;4771;48.726;9.006;2023-04-16T13:30:51;5.30;;;4.80;;
9465;SDS011;4771;48.726;9.006;2023-04-16T13:33:18;5.03;;;4.23;;
9465;SDS011;4771;48.726;9.006;2023-04-16T13:35:46;4.60;;;3.90;;
9465;SDS011;4771;48.726;9.006;2023-04-16T13:38:14;5.33;;;4.53;;
9465;SDS011;4771;48.726;9.006;2023-04-16T13:40:41;4.87;;;4.23;;
9465;SDS011;4771;48.726;9.006;2023-04-16T13:43:08;4.47;;;3.87;;
9465;SDS011;4771;48.726;9.006;2023-04-16T13:45:37;5.10;;;4.53;;
9465;SDS011;4771;48.726;9.006;2023-04-16T13:48:04;4.80;;;4.17;;
9465;SDS011;4771;48.726;9.006;2023-04-16T13:50:31;5.53;;;4.27;;
9465;SDS011;4771;48.726;9.006;2023-04-16T13:52:59;4.90;;;4.40;;
9465;SDS011;4771;48.726;9.006;2023-04-16T13:55:26;5.87;;;4.57;;
9465;SDS011;4771;48.726;9.006;2023-04-16T13:57:53;6.33;;;4.50;;
9465;SDS011;4771;48.726;9.006;2023-04-16T14:00:20;5.70;;;4.50;;
9465;SDS011;4771;48.726;9.006;2023-04-16T14:02:49;5.27;;;4.63;;
9465;SDS011;4771;48.726;9.006;2023-04-16T14:05:18;6.53;;;5.07;;
9465;SDS011;4771;48.726;9.006;2023-04-16T14:07:47;7.33;;;5.20;;
9465;SDS011;4771;48.726;9.006;2023-04-16T14:10:14;6.53;;;5.13;;
9465;SDS011;4771;48.726;9.006;2023-04-16T14:12:41;5.93;;;5.33;;
9465;SDS011;4771;48.726;9.006;2023-04-16T14:15:08;7.33;;;5.63;;
9465;SDS011;4771;48.726;9.006;2023-04-16T14:17:38;7.23;;;5.63;;
9465;SDS011;4771;48.726;9.006;2023-04-16T14:20:08;7.33;;;5.90;;
9465;SDS011;4771;48.726;9.006;2023-04-16T14:22:36;7.20;;;6.47;;
9465;SDS011;4771;48.726;9.006;2023-04-16T14:25:03;7.33;;;6.37;;
9465;SDS011;4771;48.726;9.006;2023-04-16T14:27:31;7.93;;;6.50;;
9465;SDS011;4771;48.726;9.006;2023-04-16T14:29:59;8.27;;;6.43;;
9465;SDS011;4771;48.726;9.006;2023-04-16T14:32:26;8.93;;;6.77;;
9465;SDS011;4771;48.726;9.006;2023-04-16T14:34:54;10.37;;;7.03;;
9465;SDS011;4771;48.726;9.006;2023-04-16T14:37:22;8.73;;;6.77;;
9465;SDS011;4771;48.726;9.006;2023-04-16T14:39:50;7.77;;;6.97;;
9465;SDS011;4771;48.726;9.006;2023-04-16T14:42:18;8.73;;;6.67;;
9465;SDS011;4771;48.726;9.006;2023-04-16T14:44:44;9.70;;;6.63;;
9465;SDS011;4771;48.726;9.006;2023-04-16T14:47:11;9.70;;;7.40;;
9465;SDS011;4771;48.726;9.006;2023-04-16T14:49:38;9.70;;;7.53;;
9465;SDS011;4771;48.726;9.006;2023-04-16T14:52:05;8.47;;;7.00;;
9465;SDS011;4771;48.726;9.006;2023-04-16T14:54:33;10.40;;;8.23;;
9465;SDS011;4771;48.726;9.006;2023-04-16T14:57:01;11.47;;;8.90;;
9465;SDS011;4771;48.726;9.006;2023-04-16T14:59:27;10.93;;;8.87;;
9465;SDS011;4771;48.726;9.006;2023-04-16T15:01:55;12.20;;;8.87;;
9465;SDS011;4771;48.726;9.006;2023-04-16T15:04:23;12.20;;;9.30;;
9465;SDS011;4771;48.726;9.006;2023-04-16T15:06:50;13.73;;;10.27;;